createdAt,value
2022-11-05T00:02:08.359Z,66.47
2022-11-05T00:04:57.988Z,66.38
2022-11-05T00:08:02.474Z,66.46
2022-11-05T00:10:36.840Z,66.35
2022-11-05T00:13:28.651Z,65.88
2022-11-05T00:16:18.098Z,65.82
2022-11-05T00:18:51.822Z,65.82
2022-11-05T00:21:41.729Z,65.86
2022-11-05T00:24:31.304Z,65.84
2022-11-05T00:27:03.445Z,66.06
2022-11-05T00:29:35.775Z,65.69
2022-11-05T00:32:07.880Z,65.59
2022-11-05T00:34:39.755Z,65.59
2022-11-05T00:37:11.782Z,65.25
2022-11-05T00:39:43.652Z,65.49
2022-11-05T00:42:33.324Z,65.48
2022-11-05T00:45:06.521Z,65.41
2022-11-05T00:47:57.161Z,65.05
2022-11-05T00:50:29.361Z,65.11
2022-11-05T00:53:02.059Z,65.25
2022-11-05T00:55:39.714Z,65.14
2022-11-05T00:58:13.915Z,64.61
2022-11-05T01:00:48.625Z,64.83
2022-11-05T01:03:23.646Z,64.82
2022-11-05T01:05:57.939Z,65.05
2022-11-05T01:08:29.969Z,65.07
2022-11-05T01:11:01.874Z,64.97
2022-11-05T01:13:33.757Z,65.00
2022-11-05T01:16:10.980Z,65.14
2022-11-05T01:18:42.872Z,65.33
2022-11-05T01:21:16.028Z,65.38
2022-11-05T01:23:48.030Z,65.19
2022-11-05T01:26:19.934Z,64.82
2022-11-05T01:28:57.282Z,64.97
2022-11-05T01:31:29.336Z,64.99
2022-11-05T01:34:02.167Z,65.37
2022-11-05T01:36:34.165Z,65.55
2022-11-05T01:39:06.155Z,65.61
2022-11-05T01:41:38.369Z,65.77
2022-11-05T01:44:48.017Z,65.84
2022-11-05T01:47:37.653Z,66.07
2022-11-05T01:50:27.574Z,65.89
2022-11-05T01:53:27.816Z,65.88
2022-11-05T01:56:11.732Z,65.85
2022-11-05T01:58:46.743Z,65.85
2022-11-05T02:01:19.073Z,66.16
2022-11-05T02:03:53.915Z,66.12
2022-11-05T02:06:28.657Z,66.19
2022-11-05T02:09:03.711Z,65.94
2022-11-05T02:11:35.856Z,65.48
2022-11-05T02:14:07.928Z,65.81
2022-11-05T02:16:51.602Z,66.01
2022-11-05T02:19:50.086Z,65.93
2022-11-05T02:22:41.427Z,66.07
2022-11-05T02:25:37.159Z,66.12
2022-11-05T02:28:17.798Z,65.58
2022-11-05T02:30:52.597Z,65.75
2022-11-05T02:33:54.363Z,65.73
2022-11-05T02:36:38.071Z,66.22
2022-11-05T02:39:27.524Z,66.51
2022-11-05T02:42:18.429Z,66.50
2022-11-05T02:45:01.880Z,66.72
2022-11-05T02:47:53.003Z,66.78
2022-11-05T02:50:33.480Z,66.72
2022-11-05T02:53:14.574Z,66.76
2022-11-05T02:55:52.657Z,67.27
2022-11-05T02:58:24.632Z,66.87
2022-11-05T03:00:57.941Z,66.99
2022-11-05T03:03:32.644Z,67.42
2022-11-05T03:06:19.097Z,67.48
2022-11-05T03:09:26.487Z,67.54
2022-11-05T03:12:22.424Z,67.25
2022-11-05T03:15:03.416Z,67.25
2022-11-05T03:17:40.795Z,67.39
2022-11-05T03:20:27.186Z,67.46
2022-11-05T03:23:26.362Z,67.28
2022-11-05T03:26:04.168Z,67.09
2022-11-05T03:28:39.175Z,67.07
2022-11-05T03:31:14.371Z,67.33
2022-11-05T03:33:48.695Z,67.25
2022-11-05T03:36:23.539Z,67.14
2022-11-05T03:38:58.115Z,67.32
2022-11-05T03:41:32.814Z,66.99
2022-11-05T03:44:08.168Z,67.25
2022-11-05T03:46:49.513Z,67.41
2022-11-05T03:49:24.368Z,67.16
2022-11-05T03:52:01.684Z,67.12
2022-11-05T03:54:35.891Z,67.33
2022-11-05T03:57:22.297Z,67.31
2022-11-05T03:59:54.330Z,67.57
2022-11-05T04:02:28.505Z,67.32
2022-11-05T04:04:59.895Z,67.57
2022-11-05T04:07:50.378Z,67.51
2022-11-05T04:10:42.047Z,67.19
2022-11-05T04:13:26.165Z,67.55
2022-11-05T04:16:16.006Z,67.41
2022-11-05T04:18:47.987Z,67.69
2022-11-05T04:21:37.813Z,68.34
2022-11-05T04:24:09.912Z,68.25
2022-11-05T04:26:44.746Z,68.47
2022-11-05T04:29:34.364Z,68.99
2022-11-05T04:32:06.631Z,69.03
2022-11-05T04:34:38.561Z,69.46
2022-11-05T04:37:10.592Z,69.60
2022-11-05T04:39:42.483Z,69.86
2022-11-05T04:42:14.510Z,69.14
2022-11-05T04:44:46.473Z,69.25
2022-11-05T04:47:18.570Z,69.04
2022-11-05T04:49:50.616Z,68.80
2022-11-05T04:52:22.776Z,68.68
2022-11-05T04:54:55.191Z,68.98
2022-11-05T04:57:27.235Z,68.80
2022-11-05T04:59:59.430Z,68.78
2022-11-05T05:02:33.264Z,68.58
2022-11-05T05:05:06.375Z,68.40
2022-11-05T05:07:38.327Z,67.83
2022-11-05T05:10:11.517Z,68.10
2022-11-05T05:12:43.451Z,67.90
2022-11-05T05:15:15.397Z,67.68
2022-11-05T05:17:52.454Z,67.58
2022-11-05T05:20:42.219Z,67.87
2022-11-05T05:23:14.435Z,67.70
2022-11-05T05:25:46.584Z,67.87
2022-11-05T05:28:18.664Z,67.66
2022-11-05T05:30:53.634Z,67.40
2022-11-05T05:33:24.371Z,67.61
2022-11-05T05:36:04.701Z,67.61
2022-11-05T05:38:36.471Z,68.01
2022-11-05T05:41:08.732Z,67.10
2022-11-05T05:43:40.848Z,66.77
2022-11-05T05:46:15.129Z,67.07
2022-11-05T05:48:47.722Z,67.23
2022-11-05T05:51:20.269Z,67.27
2022-11-05T05:53:53.828Z,66.88
2022-11-05T05:56:25.790Z,67.18
2022-11-05T05:58:57.728Z,67.07
2022-11-05T06:01:29.770Z,67.02
2022-11-05T06:04:01.779Z,66.74
2022-11-05T06:06:34.066Z,67.01
2022-11-05T06:09:06.517Z,66.47
2022-11-05T06:11:38.602Z,66.29
2022-11-05T06:14:14.599Z,66.33
2022-11-05T06:16:46.657Z,65.71
2022-11-05T06:19:18.837Z,65.61
2022-11-05T06:21:51.044Z,65.83
2022-11-05T06:24:23.967Z,65.72
2022-11-05T06:26:55.898Z,65.49
2022-11-05T06:29:28.132Z,65.10
2022-11-05T06:32:00.152Z,64.66
2022-11-05T06:34:32.078Z,65.03
2022-11-05T06:37:04.076Z,65.25
2022-11-05T06:39:36.026Z,65.24
2022-11-05T06:42:23.615Z,64.66
2022-11-05T06:44:42.023Z,64.68
2022-11-05T06:47:14.050Z,64.86
2022-11-05T06:49:46.693Z,64.83
2022-11-05T06:52:18.606Z,64.89
2022-11-05T06:54:51.172Z,64.87
2022-11-05T06:57:23.204Z,64.91
2022-11-05T07:00:00.620Z,65.26
2022-11-05T07:02:28.693Z,64.59
2022-11-05T07:05:00.772Z,64.59
2022-11-05T07:07:32.865Z,63.82
2022-11-05T07:10:06.408Z,64.05
2022-11-05T07:12:38.599Z,63.73
2022-11-05T07:15:12.322Z,63.41
2022-11-05T07:17:44.325Z,62.92
2022-11-05T07:20:16.725Z,62.98
2022-11-05T07:22:49.758Z,62.92
2022-11-05T07:25:22.770Z,62.81
2022-11-05T07:27:55.246Z,63.17
2022-11-05T07:30:27.766Z,63.05
2022-11-05T07:33:00.105Z,63.01
2022-11-05T07:35:32.303Z,62.98
2022-11-05T07:38:05.361Z,62.39
2022-11-05T07:40:37.767Z,62.41
2022-11-05T07:43:12.207Z,62.72
2022-11-05T07:45:45.955Z,62.89
2022-11-05T07:48:18.366Z,62.95
2022-11-05T07:50:53.523Z,62.79
2022-11-05T07:53:25.415Z,63.66
2022-11-05T07:55:59.125Z,63.72
2022-11-05T07:58:31.585Z,63.92
2022-11-05T08:01:03.837Z,63.99
2022-11-05T08:03:36.759Z,64.04
2022-11-05T08:06:08.943Z,63.55
2022-11-05T08:08:40.768Z,63.57
2022-11-05T08:11:13.439Z,63.12
2022-11-05T08:13:45.378Z,63.31
2022-11-05T08:16:18.065Z,62.63
2022-11-05T08:18:50.036Z,62.50
2022-11-05T08:21:22.144Z,62.97
2022-11-05T08:23:54.134Z,62.90
2022-11-05T08:26:26.145Z,62.52
2022-11-05T08:28:58.283Z,62.31
2022-11-05T08:31:31.183Z,62.44
2022-11-05T08:34:03.165Z,62.52
2022-11-05T08:36:36.919Z,62.53
2022-11-05T08:39:14.303Z,62.38
2022-11-05T08:41:42.487Z,62.50
2022-11-05T08:44:13.978Z,62.79
2022-11-05T08:46:46.091Z,61.99
2022-11-05T08:49:18.029Z,62.05
2022-11-05T08:51:50.286Z,61.66
2022-11-05T08:54:22.357Z,61.82
2022-11-05T08:56:54.632Z,62.11
2022-11-05T08:59:27.346Z,61.79
2022-11-05T09:01:59.821Z,61.75
2022-11-05T09:04:31.963Z,61.81
2022-11-05T09:07:03.984Z,61.88
2022-11-05T09:09:36.201Z,61.91
2022-11-05T09:12:12.921Z,61.83
2022-11-05T09:14:42.262Z,61.91
2022-11-05T09:17:20.761Z,62.10
2022-11-05T09:19:53.276Z,61.99
2022-11-05T09:22:25.338Z,62.24
2022-11-05T09:24:57.582Z,62.27
2022-11-05T09:27:29.576Z,62.28
2022-11-05T09:30:02.027Z,62.56
2022-11-05T09:32:34.238Z,62.68
2022-11-05T09:35:07.414Z,63.11
2022-11-05T09:37:39.437Z,62.64
2022-11-05T09:40:14.601Z,62.52
2022-11-05T09:42:48.016Z,62.41
2022-11-05T09:45:22.923Z,62.89
2022-11-05T09:48:00.888Z,62.52
2022-11-05T09:50:35.906Z,62.63
2022-11-05T09:53:09.089Z,62.35
2022-11-05T09:55:44.846Z,62.47
2022-11-05T09:58:28.394Z,62.57
2022-11-05T10:00:56.913Z,62.36
2022-11-05T10:03:31.308Z,62.04
2022-11-05T10:06:04.005Z,62.47
2022-11-05T10:08:38.834Z,62.76
2022-11-05T10:11:17.570Z,62.54
2022-11-05T10:13:56.308Z,62.59
2022-11-05T10:16:34.260Z,62.65
2022-11-05T10:19:19.315Z,62.54
2022-11-05T10:22:05.636Z,63.13
2022-11-05T10:24:24.934Z,62.37
2022-11-05T10:26:57.772Z,62.85
2022-11-05T10:29:32.750Z,62.61
2022-11-05T10:32:07.532Z,62.73
2022-11-05T10:34:41.138Z,62.22
2022-11-05T10:37:13.517Z,62.75
2022-11-05T10:39:45.579Z,62.84
2022-11-05T10:42:26.618Z,62.48
2022-11-05T10:45:07.616Z,62.33
2022-11-05T10:47:51.165Z,62.24
2022-11-05T10:50:26.245Z,62.32
2022-11-05T10:53:10.227Z,62.55
2022-11-05T10:55:45.217Z,62.45
2022-11-05T10:58:23.370Z,62.03
2022-11-05T11:00:58.285Z,62.09
2022-11-05T11:03:36.457Z,62.10
2022-11-05T11:06:29.588Z,61.96
2022-11-05T11:09:10.327Z,61.35
2022-11-05T11:11:43.820Z,61.17
2022-11-05T11:14:19.230Z,61.24
2022-11-05T11:16:54.463Z,61.21
2022-11-05T11:19:37.075Z,61.65
2022-11-05T11:22:12.038Z,61.24
2022-11-05T11:24:47.996Z,61.48
2022-11-05T11:27:31.478Z,61.80
2022-11-05T11:30:06.288Z,62.15
2022-11-05T11:32:40.596Z,62.08
2022-11-05T11:35:27.127Z,61.93
2022-11-05T11:38:01.625Z,62.03
2022-11-05T11:40:36.583Z,62.06
2022-11-05T11:43:17.126Z,61.79
2022-11-05T11:45:51.964Z,62.48
2022-11-05T11:48:32.051Z,61.80
2022-11-05T11:51:18.755Z,62.01
2022-11-05T11:53:51.559Z,62.09
2022-11-05T11:56:23.568Z,62.94
2022-11-05T11:58:57.650Z,62.70
2022-11-05T12:01:44.598Z,62.69
2022-11-05T12:04:35.822Z,62.39
2022-11-05T12:07:13.943Z,63.39
2022-11-05T12:10:12.568Z,63.32
2022-11-05T12:13:17.490Z,63.61
2022-11-05T12:16:04.754Z,63.26
2022-11-05T12:18:57.791Z,63.27
2022-11-05T12:21:51.879Z,63.67
2022-11-05T12:24:21.909Z,63.81
2022-11-05T12:27:10.456Z,63.80
2022-11-05T12:30:01.331Z,63.63
2022-11-05T12:33:04.815Z,63.41
2022-11-05T12:36:00.418Z,63.69
2022-11-05T12:38:52.817Z,64.34
2022-11-05T12:41:27.789Z,64.55
2022-11-05T12:44:11.545Z,64.39
2022-11-05T12:47:02.596Z,64.41
2022-11-05T12:50:05.749Z,64.67
2022-11-05T12:52:46.365Z,64.49
2022-11-05T12:55:21.141Z,64.79
2022-11-05T12:57:55.977Z,64.89
2022-11-05T13:00:30.196Z,65.15
2022-11-05T13:03:19.940Z,65.61
2022-11-05T13:06:02.906Z,65.32
2022-11-05T13:08:54.782Z,65.21
2022-11-05T13:11:41.365Z,64.94
2022-11-05T13:14:18.829Z,65.72
2022-11-05T13:16:53.632Z,65.56
2022-11-05T13:19:40.254Z,65.61
2022-11-05T13:22:39.462Z,66.14
2022-11-05T13:25:20.069Z,66.17
2022-11-05T13:27:57.825Z,65.75
2022-11-05T13:30:37.720Z,65.91
2022-11-05T13:33:30.810Z,66.36
2022-11-05T13:36:26.320Z,66.53
2022-11-05T13:39:09.725Z,66.17
2022-11-05T13:42:04.156Z,66.02
2022-11-05T13:44:44.843Z,66.61
2022-11-05T13:47:37.440Z,66.77
2022-11-05T13:50:15.108Z,66.68
2022-11-05T13:52:58.762Z,67.00
2022-11-05T13:55:42.622Z,66.61
2022-11-05T13:58:32.349Z,66.74
2022-11-05T14:01:16.320Z,66.66
2022-11-05T14:03:54.024Z,66.86
2022-11-05T14:06:31.661Z,66.78
2022-11-05T14:09:12.388Z,67.20
2022-11-05T14:11:47.494Z,67.35
2022-11-05T14:14:28.273Z,67.49
2022-11-05T14:17:12.180Z,67.57
2022-11-05T14:20:06.492Z,68.03
2022-11-05T14:22:41.912Z,68.11
2022-11-05T14:25:23.385Z,67.79
2022-11-05T14:27:55.866Z,67.35
2022-11-05T14:30:47.913Z,67.37
2022-11-05T14:33:28.358Z,67.48
2022-11-05T14:36:24.162Z,67.42
2022-11-05T14:39:04.148Z,67.10
2022-11-05T14:41:32.666Z,66.76
2022-11-05T14:44:09.159Z,66.90
2022-11-05T14:46:49.948Z,67.25
2022-11-05T14:49:26.275Z,67.29
2022-11-05T14:52:01.589Z,67.50
2022-11-05T14:54:41.961Z,67.50
2022-11-05T14:57:16.382Z,67.42
2022-11-05T15:00:00.677Z,67.93
2022-11-05T15:02:38.963Z,68.53
2022-11-05T15:05:42.616Z,68.39
2022-11-05T15:08:26.879Z,68.48
2022-11-05T15:11:10.499Z,67.74
2022-11-05T15:14:00.107Z,67.89
2022-11-05T15:16:47.111Z,67.82
2022-11-05T15:19:24.832Z,67.63
2022-11-05T15:22:00.376Z,67.76
2022-11-05T15:24:33.401Z,67.86
2022-11-05T15:27:16.927Z,67.88
2022-11-05T15:29:49.093Z,67.71
2022-11-05T15:32:23.868Z,68.29
2022-11-05T15:34:57.486Z,68.20
2022-11-05T15:37:29.842Z,67.63
2022-11-05T15:40:01.888Z,67.83
2022-11-05T15:42:34.288Z,68.27
2022-11-05T15:45:08.842Z,68.32
2022-11-05T15:47:43.767Z,68.50
2022-11-05T15:50:17.342Z,68.43
2022-11-05T15:52:51.854Z,68.09
2022-11-05T15:55:26.597Z,68.08
2022-11-05T15:58:07.407Z,67.73
2022-11-05T16:00:39.652Z,67.87
2022-11-05T16:03:32.779Z,67.92
2022-11-05T16:06:06.256Z,68.26
2022-11-05T16:08:38.638Z,67.99
2022-11-05T16:11:12.387Z,67.69
2022-11-05T16:13:44.473Z,67.56
2022-11-05T16:16:21.426Z,67.63
2022-11-05T16:18:53.481Z,68.17
2022-11-05T16:21:25.482Z,68.18
2022-11-05T16:24:00.419Z,67.83
2022-11-05T16:27:02.261Z,67.88
2022-11-05T16:29:21.278Z,67.76
2022-11-05T16:31:56.541Z,67.34
2022-11-05T16:34:39.942Z,67.50
2022-11-05T16:37:17.330Z,67.91
2022-11-05T16:39:49.695Z,67.71
2022-11-05T16:42:27.285Z,67.24
2022-11-05T16:44:59.527Z,67.78
2022-11-05T16:47:33.178Z,67.68
2022-11-05T16:50:20.059Z,67.83
2022-11-05T16:52:52.641Z,68.34
2022-11-05T16:55:24.614Z,68.14
2022-11-05T16:57:57.206Z,68.00
2022-11-05T17:00:29.656Z,67.85
2022-11-05T17:03:01.537Z,67.84
2022-11-05T17:05:33.896Z,67.96
2022-11-05T17:08:05.778Z,67.73
2022-11-05T17:10:37.942Z,67.47
2022-11-05T17:13:12.474Z,67.66
2022-11-05T17:15:46.685Z,67.79
2022-11-05T17:18:19.758Z,67.54
2022-11-05T17:20:54.632Z,67.68
2022-11-05T17:23:27.431Z,67.64
2022-11-05T17:26:02.265Z,67.40
2022-11-05T17:28:35.169Z,67.12
2022-11-05T17:31:10.466Z,67.16
2022-11-05T17:33:42.857Z,67.06
2022-11-05T17:36:16.740Z,67.19
2022-11-05T17:38:48.789Z,66.67
2022-11-05T17:41:22.924Z,67.14
2022-11-05T17:43:56.629Z,67.42
2022-11-05T17:46:28.931Z,67.48
2022-11-05T17:49:01.072Z,67.26
2022-11-05T17:51:34.375Z,66.96
2022-11-05T17:54:07.618Z,66.92
2022-11-05T17:56:44.494Z,66.77
2022-11-05T17:59:15.242Z,67.34
2022-11-05T18:01:47.519Z,67.34
2022-11-05T18:04:19.673Z,67.27
2022-11-05T18:06:51.716Z,66.56
2022-11-05T18:09:23.598Z,66.86
2022-11-05T18:11:56.152Z,67.07
2022-11-05T18:14:28.393Z,67.24
2022-11-05T18:17:03.382Z,67.12
2022-11-05T18:19:37.099Z,66.95
2022-11-05T18:22:09.204Z,66.78
2022-11-05T18:24:41.397Z,67.09
2022-11-05T18:27:13.874Z,66.91
2022-11-05T18:29:46.529Z,67.33
2022-11-05T18:32:18.559Z,67.54
2022-11-05T18:34:50.868Z,67.24
2022-11-05T18:37:23.184Z,67.20
2022-11-05T18:39:55.481Z,67.31
2022-11-05T18:42:27.452Z,67.56
2022-11-05T18:44:59.518Z,67.60
2022-11-05T18:47:33.830Z,67.56
2022-11-05T18:50:07.431Z,66.99
2022-11-05T18:52:39.376Z,66.91
2022-11-05T18:55:11.533Z,66.96
2022-11-05T18:57:43.420Z,66.82
2022-11-05T19:00:15.915Z,66.70
2022-11-05T19:02:48.078Z,67.00
2022-11-05T19:05:29.069Z,66.52
2022-11-05T19:07:54.131Z,66.62
2022-11-05T19:10:26.817Z,66.76
2022-11-05T19:12:58.898Z,66.84
2022-11-05T19:15:30.778Z,66.76
2022-11-05T19:18:02.650Z,66.69
2022-11-05T19:20:37.803Z,66.64
2022-11-05T19:23:08.386Z,66.78
2022-11-05T19:25:40.547Z,66.82
2022-11-05T19:28:12.686Z,66.60
2022-11-05T19:30:46.479Z,66.81
2022-11-05T19:33:18.471Z,66.89
2022-11-05T19:35:50.598Z,66.79
2022-11-05T19:38:22.884Z,66.48
2022-11-05T19:40:54.983Z,66.40
2022-11-05T19:43:27.224Z,66.44
2022-11-05T19:45:59.105Z,66.34
2022-11-05T19:48:31.738Z,66.46
2022-11-05T19:51:06.686Z,66.70
2022-11-05T19:53:39.661Z,66.89
2022-11-05T19:56:14.342Z,66.59
2022-11-05T19:58:46.550Z,66.38
2022-11-05T20:01:19.528Z,66.29
2022-11-05T20:03:52.095Z,66.31
2022-11-05T20:06:28.811Z,66.78
2022-11-05T20:11:39.505Z,66.54
2022-11-05T20:14:11.875Z,66.76
2022-11-05T20:16:44.012Z,66.90
2022-11-05T20:19:18.620Z,66.92
2022-11-05T20:21:50.637Z,67.23
2022-11-05T20:24:25.266Z,67.36
2022-11-05T20:26:57.679Z,67.02
2022-11-05T20:29:35.287Z,66.69
2022-11-05T20:32:04.860Z,66.86
2022-11-05T20:34:37.326Z,66.95
2022-11-05T20:37:09.500Z,66.92
2022-11-05T20:39:41.681Z,66.86
2022-11-05T20:42:14.093Z,66.94
2022-11-05T20:44:45.928Z,66.95
2022-11-05T20:47:18.103Z,66.59
2022-11-05T20:49:50.585Z,66.75
2022-11-05T20:52:22.846Z,66.60
2022-11-05T20:54:55.059Z,65.88
2022-11-05T20:57:27.916Z,66.13
2022-11-05T21:00:00.002Z,66.25
2022-11-05T21:02:33.952Z,66.42
2022-11-05T21:05:07.516Z,66.13
2022-11-05T21:07:39.555Z,66.14
2022-11-05T21:10:12.071Z,66.25
2022-11-05T21:12:45.017Z,66.36
2022-11-05T21:15:18.721Z,66.53
2022-11-05T21:17:51.542Z,66.38
2022-11-05T21:20:23.589Z,66.61
2022-11-05T21:22:55.818Z,66.69
2022-11-05T21:25:27.882Z,66.25
2022-11-05T21:28:00.336Z,66.30
2022-11-05T21:30:32.278Z,66.36
2022-11-05T21:33:05.357Z,66.48
2022-11-05T21:35:44.174Z,66.38
2022-11-05T21:38:17.524Z,66.32
2022-11-05T21:40:49.621Z,66.73
2022-11-05T21:43:21.729Z,66.15
2022-11-05T21:45:53.815Z,66.50
2022-11-05T21:48:26.073Z,66.65
2022-11-05T21:51:15.559Z,66.59
2022-11-05T21:54:05.692Z,66.51
2022-11-05T21:56:55.323Z,66.01
2022-11-05T21:59:45.100Z,66.60
2022-11-05T22:02:26.656Z,67.08
2022-11-05T22:05:00.172Z,66.49
2022-11-05T22:07:35.596Z,66.87
2022-11-05T22:10:14.857Z,67.12
2022-11-05T22:12:44.654Z,66.83
2022-11-05T22:15:16.779Z,66.76
2022-11-05T22:17:52.990Z,67.00
2022-11-05T22:20:25.935Z,66.97
2022-11-05T22:22:57.959Z,66.69
2022-11-05T22:25:29.804Z,66.27
2022-11-05T22:28:01.746Z,66.41
2022-11-05T22:30:36.997Z,66.46
2022-11-05T22:33:09.020Z,66.50
2022-11-05T22:35:41.493Z,66.85
2022-11-05T22:38:13.929Z,67.04
2022-11-05T22:40:46.337Z,66.88
2022-11-05T22:43:19.049Z,66.74
2022-11-05T22:45:51.628Z,67.08
2022-11-05T22:48:23.685Z,66.59
2022-11-05T22:50:55.901Z,66.92
2022-11-05T22:53:27.979Z,66.98
2022-11-05T22:55:59.908Z,67.20
2022-11-05T22:58:32.168Z,66.72
2022-11-05T23:01:05.028Z,67.23
2022-11-05T23:03:37.922Z,67.08
2022-11-05T23:06:17.374Z,66.74
2022-11-05T23:09:06.096Z,66.55
2022-11-05T23:11:41.047Z,66.80
2022-11-05T23:14:14.659Z,66.90
2022-11-05T23:17:05.053Z,66.74
2022-11-05T23:19:55.367Z,67.05
2022-11-05T23:22:47.412Z,66.78
2022-11-05T23:25:22.141Z,67.18
2022-11-05T23:27:55.614Z,66.71
2022-11-05T23:30:29.451Z,66.96
2022-11-05T23:33:01.615Z,66.81
2022-11-05T23:35:52.823Z,67.46
2022-11-05T23:38:38.110Z,67.50
2022-11-05T23:41:28.857Z,66.84
2022-11-05T23:44:18.945Z,67.12
2022-11-05T23:47:08.817Z,67.60
2022-11-05T23:49:41.389Z,67.27
2022-11-05T23:52:13.416Z,67.43
2022-11-05T23:54:45.733Z,67.40
2022-11-05T23:57:18.067Z,67.02
2022-11-05T23:59:50.041Z,67.00
